sensor_id;sensor_type;location;lat;lon;timestamp;P1;durP1;ratioP1;P2;durP2;ratioP2
60718;SDS011;46567;51.660;5.824;2023-04-15T00:00:43;9.4;;;4.4;;
60718;SDS011;46567;51.660;5.824;2023-04-15T00:05:43;6.7;;;4.0;;
60718;SDS011;46567;51.660;5.824;2023-04-15T00:10:43;10.7;;;5.0;;
60718;SDS011;46567;51.660;5.824;2023-04-15T00:15:43;10.8;;;4.7;;
60718;SDS011;46567;51.660;5.824;2023-04-15T00:20:43;8.1;;;4.3;;
60718;SDS011;46567;51.660;5.824;2023-04-15T00:25:43;8.1;;;4.9;;
60718;SDS011;46567;51.660;5.824;2023-04-15T00:30:43;6.3;;;4.9;;
60718;SDS011;46567;51.660;5.824;2023-04-15T00:35:43;6.9;;;4.8;;
60718;SDS011;46567;51.660;5.824;2023-04-15T00:40:43;9.8;;;5.2;;
60718;SDS011;46567;51.660;5.824;2023-04-15T00:45:43;10.1;;;5.3;;
60718;SDS011;46567;51.660;5.824;2023-04-15T00:50:43;11.3;;;5.6;;
60718;SDS011;46567;51.660;5.824;2023-04-15T00:55:43;7.5;;;5.6;;
60718;SDS011;46567;51.660;5.824;2023-04-15T01:00:43;9.6;;;5.3;;
60718;SDS011;46567;51.660;5.824;2023-04-15T01:05:43;8.9;;;5.2;;
60718;SDS011;46567;51.660;5.824;2023-04-15T01:10:43;9.5;;;5.3;;
60718;SDS011;46567;51.660;5.824;2023-04-15T01:15:43;11.2;;;5.6;;
60718;SDS011;46567;51.660;5.824;2023-04-15T01:20:43;8.8;;;5.3;;
60718;SDS011;46567;51.660;5.824;2023-04-15T01:25:43;7.8;;;5.7;;
60718;SDS011;46567;51.660;5.824;2023-04-15T01:30:43;6.8;;;5.0;;
60718;SDS011;46567;51.660;5.824;2023-04-15T01:35:43;6.4;;;5.1;;
60718;SDS011;46567;51.660;5.824;2023-04-15T01:40:43;8.5;;;5.0;;
60718;SDS011;46567;51.660;5.824;2023-04-15T01:45:43;8.9;;;5.8;;
60718;SDS011;46567;51.660;5.824;2023-04-15T01:50:43;7.7;;;5.3;;
60718;SDS011;46567;51.660;5.824;2023-04-15T01:55:43;8.2;;;6.0;;
60718;SDS011;46567;51.660;5.824;2023-04-15T02:00:43;10.2;;;6.1;;
60718;SDS011;46567;51.660;5.824;2023-04-15T02:05:43;10.4;;;5.5;;
60718;SDS011;46567;51.660;5.824;2023-04-15T02:10:43;8.9;;;5.7;;
60718;SDS011;46567;51.660;5.824;2023-04-15T02:15:45;9.6;;;5.8;;
60718;SDS011;46567;51.660;5.824;2023-04-15T02:20:43;8.7;;;5.6;;
60718;SDS011;46567;51.660;5.824;2023-04-15T02:25:43;10.2;;;5.8;;
60718;SDS011;46567;51.660;5.824;2023-04-15T02:30:45;9.0;;;5.7;;
60718;SDS011;46567;51.660;5.824;2023-04-15T02:35:43;9.3;;;6.3;;
60718;SDS011;46567;51.660;5.824;2023-04-15T02:40:43;10.4;;;6.4;;
60718;SDS011;46567;51.660;5.824;2023-04-15T02:45:44;9.8;;;6.1;;
60718;SDS011;46567;51.660;5.824;2023-04-15T02:50:44;9.5;;;6.2;;
60718;SDS011;46567;51.660;5.824;2023-04-15T02:55:43;9.0;;;6.4;;
60718;SDS011;46567;51.660;5.824;2023-04-15T03:00:43;9.4;;;6.4;;
60718;SDS011;46567;51.660;5.824;2023-04-15T03:05:43;9.1;;;6.3;;
60718;SDS011;46567;51.660;5.824;2023-04-15T03:10:43;9.2;;;6.6;;
60718;SDS011;46567;51.660;5.824;2023-04-15T03:15:44;8.7;;;6.5;;
60718;SDS011;46567;51.660;5.824;2023-04-15T03:20:43;7.8;;;6.3;;
60718;SDS011;46567;51.660;5.824;2023-04-15T03:25:43;8.1;;;6.5;;
60718;SDS011;46567;51.660;5.824;2023-04-15T03:30:43;8.2;;;6.5;;
60718;SDS011;46567;51.660;5.824;2023-04-15T03:35:43;11.3;;;6.6;;
60718;SDS011;46567;51.660;5.824;2023-04-15T03:40:45;10.1;;;7.0;;
60718;SDS011;46567;51.660;5.824;2023-04-15T03:45:43;10.2;;;6.7;;
60718;SDS011;46567;51.660;5.824;2023-04-15T03:50:43;9.4;;;6.5;;
60718;SDS011;46567;51.660;5.824;2023-04-15T03:55:43;12.0;;;6.8;;
60718;SDS011;46567;51.660;5.824;2023-04-15T04:00:43;10.0;;;7.1;;
60718;SDS011;46567;51.660;5.824;2023-04-15T04:05:43;11.5;;;7.1;;
60718;SDS011;46567;51.660;5.824;2023-04-15T04:10:43;9.8;;;7.4;;
60718;SDS011;46567;51.660;5.824;2023-04-15T04:15:43;10.8;;;7.1;;
60718;SDS011;46567;51.660;5.824;2023-04-15T04:20:43;10.7;;;7.1;;
60718;SDS011;46567;51.660;5.824;2023-04-15T04:25:43;8.9;;;6.6;;
60718;SDS011;46567;51.660;5.824;2023-04-15T04:30:43;10.8;;;7.1;;
60718;SDS011;46567;51.660;5.824;2023-04-15T04:35:43;10.0;;;6.2;;
60718;SDS011;46567;51.660;5.824;2023-04-15T04:40:43;10.1;;;7.0;;
60718;SDS011;46567;51.660;5.824;2023-04-15T04:45:43;9.9;;;6.5;;
60718;SDS011;46567;51.660;5.824;2023-04-15T04:50:43;11.9;;;7.0;;
60718;SDS011;46567;51.660;5.824;2023-04-15T04:55:43;10.3;;;7.1;;
60718;SDS011;46567;51.660;5.824;2023-04-15T05:00:43;9.0;;;6.7;;
60718;SDS011;46567;51.660;5.824;2023-04-15T05:05:43;9.2;;;6.8;;
60718;SDS011;46567;51.660;5.824;2023-04-15T05:10:43;9.1;;;6.4;;
60718;SDS011;46567;51.660;5.824;2023-04-15T05:15:43;11.0;;;7.3;;
60718;SDS011;46567;51.660;5.824;2023-04-15T05:20:43;8.7;;;6.6;;
60718;SDS011;46567;51.660;5.824;2023-04-15T05:25:43;10.9;;;6.6;;
60718;SDS011;46567;51.660;5.824;2023-04-15T05:30:43;7.7;;;6.4;;
60718;SDS011;46567;51.660;5.824;2023-04-15T05:35:43;11.7;;;7.3;;
60718;SDS011;46567;51.660;5.824;2023-04-15T05:40:43;8.9;;;6.9;;
60718;SDS011;46567;51.660;5.824;2023-04-15T05:45:43;11.0;;;7.1;;
60718;SDS011;46567;51.660;5.824;2023-04-15T05:50:43;9.5;;;6.9;;
60718;SDS011;46567;51.660;5.824;2023-04-15T05:55:43;9.4;;;7.4;;
60718;SDS011;46567;51.660;5.824;2023-04-15T06:00:43;11.6;;;7.6;;
60718;SDS011;46567;51.660;5.824;2023-04-15T06:05:43;11.3;;;7.8;;
60718;SDS011;46567;51.660;5.824;2023-04-15T06:10:43;11.1;;;8.1;;
60718;SDS011;46567;51.660;5.824;2023-04-15T06:15:43;10.5;;;7.6;;
60718;SDS011;46567;51.660;5.824;2023-04-15T06:20:43;9.4;;;7.7;;
60718;SDS011;46567;51.660;5.824;2023-04-15T06:25:43;11.5;;;8.6;;
60718;SDS011;46567;51.660;5.824;2023-04-15T06:30:43;13.7;;;8.4;;
60718;SDS011;46567;51.660;5.824;2023-04-15T06:40:43;11.2;;;8.6;;
60718;SDS011;46567;51.660;5.824;2023-04-15T06:45:43;14.6;;;8.5;;
60718;SDS011;46567;51.660;5.824;2023-04-15T06:50:43;11.6;;;9.0;;
60718;SDS011;46567;51.660;5.824;2023-04-15T06:55:43;12.9;;;8.7;;
60718;SDS011;46567;51.660;5.824;2023-04-15T07:00:43;11.4;;;8.4;;
60718;SDS011;46567;51.660;5.824;2023-04-15T07:05:43;10.9;;;8.3;;
60718;SDS011;46567;51.660;5.824;2023-04-15T07:10:43;16.0;;;8.4;;
60718;SDS011;46567;51.660;5.824;2023-04-15T07:15:43;10.5;;;8.5;;
60718;SDS011;46567;51.660;5.824;2023-04-15T07:20:43;13.1;;;9.5;;
60718;SDS011;46567;51.660;5.824;2023-04-15T07:25:43;12.1;;;8.5;;
60718;SDS011;46567;51.660;5.824;2023-04-15T07:30:43;11.6;;;8.8;;
60718;SDS011;46567;51.660;5.824;2023-04-15T07:35:43;11.9;;;9.0;;
60718;SDS011;46567;51.660;5.824;2023-04-15T07:40:43;11.9;;;8.4;;
60718;SDS011;46567;51.660;5.824;2023-04-15T07:45:43;11.6;;;7.8;;
60718;SDS011;46567;51.660;5.824;2023-04-15T07:50:43;10.1;;;7.8;;
60718;SDS011;46567;51.660;5.824;2023-04-15T07:55:43;11.8;;;8.3;;
60718;SDS011;46567;51.660;5.824;2023-04-15T08:00:43;12.6;;;9.0;;
60718;SDS011;46567;51.660;5.824;2023-04-15T08:05:43;10.9;;;8.4;;
60718;SDS011;46567;51.660;5.824;2023-04-15T08:10:43;15.5;;;8.3;;
60718;SDS011;46567;51.660;5.824;2023-04-15T08:15:43;10.8;;;8.3;;
60718;SDS011;46567;51.660;5.824;2023-04-15T08:20:43;10.9;;;7.5;;
60718;SDS011;46567;51.660;5.824;2023-04-15T08:25:43;9.5;;;7.4;;
60718;SDS011;46567;51.660;5.824;2023-04-15T08:30:43;9.0;;;6.9;;
60718;SDS011;46567;51.660;5.824;2023-04-15T08:35:43;9.3;;;6.6;;
60718;SDS011;46567;51.660;5.824;2023-04-15T08:40:44;9.4;;;6.4;;
60718;SDS011;46567;51.660;5.824;2023-04-15T08:45:43;10.3;;;6.9;;
60718;SDS011;46567;51.660;5.824;2023-04-15T08:50:43;7.4;;;5.7;;
60718;SDS011;46567;51.660;5.824;2023-04-15T08:55:44;7.1;;;5.6;;
60718;SDS011;46567;51.660;5.824;2023-04-15T09:00:43;7.8;;;4.8;;
60718;SDS011;46567;51.660;5.824;2023-04-15T09:05:43;5.9;;;5.1;;
60718;SDS011;46567;51.660;5.824;2023-04-15T09:10:43;5.7;;;4.3;;
60718;SDS011;46567;51.660;5.824;2023-04-15T09:15:43;7.0;;;4.3;;
60718;SDS011;46567;51.660;5.824;2023-04-15T09:20:43;5.7;;;4.7;;
60718;SDS011;46567;51.660;5.824;2023-04-15T09:25:43;5.6;;;4.2;;
60718;SDS011;46567;51.660;5.824;2023-04-15T09:30:43;6.3;;;4.8;;
60718;SDS011;46567;51.660;5.824;2023-04-15T09:35:45;5.4;;;4.7;;
60718;SDS011;46567;51.660;5.824;2023-04-15T09:40:43;4.4;;;3.3;;
60718;SDS011;46567;51.660;5.824;2023-04-15T09:45:47;4.6;;;3.5;;
60718;SDS011;46567;51.660;5.824;2023-04-15T09:50:43;3.8;;;3.3;;
60718;SDS011;46567;51.660;5.824;2023-04-15T09:55:43;4.5;;;3.5;;
60718;SDS011;46567;51.660;5.824;2023-04-15T10:00:43;4.2;;;2.9;;
60718;SDS011;46567;51.660;5.824;2023-04-15T10:05:43;4.3;;;3.1;;
60718;SDS011;46567;51.660;5.824;2023-04-15T10:10:43;4.7;;;3.1;;
60718;SDS011;46567;51.660;5.824;2023-04-15T10:15:44;3.3;;;2.7;;
60718;SDS011;46567;51.660;5.824;2023-04-15T10:20:43;5.6;;;3.4;;
60718;SDS011;46567;51.660;5.824;2023-04-15T10:25:43;4.1;;;2.7;;
60718;SDS011;46567;51.660;5.824;2023-04-15T10:30:43;3.2;;;2.7;;
60718;SDS011;46567;51.660;5.824;2023-04-15T10:35:43;4.2;;;3.1;;
60718;SDS011;46567;51.660;5.824;2023-04-15T10:40:43;4.1;;;3.1;;
60718;SDS011;46567;51.660;5.824;2023-04-15T10:45:43;4.1;;;3.2;;
60718;SDS011;46567;51.660;5.824;2023-04-15T10:50:55;5.4;;;3.2;;
60718;SDS011;46567;51.660;5.824;2023-04-15T10:55:43;3.4;;;2.7;;
60718;SDS011;46567;51.660;5.824;2023-04-15T11:00:47;3.9;;;2.6;;
60718;SDS011;46567;51.660;5.824;2023-04-15T11:05:51;4.6;;;2.9;;
60718;SDS011;46567;51.660;5.824;2023-04-15T11:10:52;3.5;;;2.8;;
60718;SDS011;46567;51.660;5.824;2023-04-15T11:15:47;3.5;;;2.8;;
60718;SDS011;46567;51.660;5.824;2023-04-15T11:25:43;2.8;;;2.4;;
60718;SDS011;46567;51.660;5.824;2023-04-15T11:30:43;3.4;;;2.9;;
60718;SDS011;46567;51.660;5.824;2023-04-15T11:35:43;4.0;;;2.9;;
60718;SDS011;46567;51.660;5.824;2023-04-15T11:40:44;3.2;;;2.5;;
60718;SDS011;46567;51.660;5.824;2023-04-15T11:45:47;3.8;;;3.0;;
60718;SDS011;46567;51.660;5.824;2023-04-15T11:50:43;4.6;;;2.9;;
60718;SDS011;46567;51.660;5.824;2023-04-15T11:55:44;6.1;;;3.0;;
60718;SDS011;46567;51.660;5.824;2023-04-15T12:00:47;3.5;;;2.7;;
60718;SDS011;46567;51.660;5.824;2023-04-15T12:06:14;5.6;;;2.9;;
60718;SDS011;46567;51.660;5.824;2023-04-15T12:10:43;3.8;;;2.5;;
60718;SDS011;46567;51.660;5.824;2023-04-15T12:15:43;3.1;;;2.4;;
60718;SDS011;46567;51.660;5.824;2023-04-15T12:20:43;3.5;;;2.5;;
60718;SDS011;46567;51.660;5.824;2023-04-15T12:25:43;2.0;;;1.6;;
60718;SDS011;46567;51.660;5.824;2023-04-15T12:30:47;3.8;;;2.4;;
60718;SDS011;46567;51.660;5.824;2023-04-15T12:35:43;2.9;;;1.8;;
60718;SDS011;46567;51.660;5.824;2023-04-15T12:40:45;2.2;;;1.5;;
60718;SDS011;46567;51.660;5.824;2023-04-15T12:45:43;1.9;;;1.8;;
60718;SDS011;46567;51.660;5.824;2023-04-15T12:50:43;7.8;;;1.8;;
60718;SDS011;46567;51.660;5.824;2023-04-15T12:55:43;3.1;;;1.5;;
60718;SDS011;46567;51.660;5.824;2023-04-15T13:00:43;2.0;;;1.6;;
60718;SDS011;46567;51.660;5.824;2023-04-15T13:05:43;3.1;;;1.4;;
60718;SDS011;46567;51.660;5.824;2023-04-15T13:10:43;2.8;;;1.6;;
60718;SDS011;46567;51.660;5.824;2023-04-15T13:15:43;2.2;;;1.5;;
60718;SDS011;46567;51.660;5.824;2023-04-15T13:20:43;2.1;;;1.3;;
60718;SDS011;46567;51.660;5.824;2023-04-15T13:25:43;2.0;;;1.7;;
60718;SDS011;46567;51.660;5.824;2023-04-15T13:30:43;1.5;;;1.3;;
60718;SDS011;46567;51.660;5.824;2023-04-15T13:35:43;3.5;;;1.6;;
60718;SDS011;46567;51.660;5.824;2023-04-15T13:40:43;2.8;;;2.0;;
60718;SDS011;46567;51.660;5.824;2023-04-15T13:45:43;4.5;;;2.3;;
60718;SDS011;46567;51.660;5.824;2023-04-15T13:50:43;3.4;;;1.8;;
60718;SDS011;46567;51.660;5.824;2023-04-15T13:55:43;1.9;;;1.5;;
60718;SDS011;46567;51.660;5.824;2023-04-15T14:00:43;3.3;;;1.5;;
60718;SDS011;46567;51.660;5.824;2023-04-15T14:05:43;2.4;;;1.4;;
60718;SDS011;46567;51.660;5.824;2023-04-15T14:10:43;1.5;;;1.0;;
60718;SDS011;46567;51.660;5.824;2023-04-15T14:15:43;2.8;;;1.2;;
60718;SDS011;46567;51.660;5.824;2023-04-15T14:20:43;1.7;;;1.0;;
60718;SDS011;46567;51.660;5.824;2023-04-15T14:25:43;2.6;;;0.9;;
60718;SDS011;46567;51.660;5.824;2023-04-15T14:30:43;4.6;;;1.8;;
60718;SDS011;46567;51.660;5.824;2023-04-15T14:35:43;4.3;;;1.1;;
60718;SDS011;46567;51.660;5.824;2023-04-15T14:40:43;1.9;;;1.0;;
60718;SDS011;46567;51.660;5.824;2023-04-15T14:45:43;3.2;;;0.9;;
60718;SDS011;46567;51.660;5.824;2023-04-15T14:50:43;2.3;;;0.9;;
60718;SDS011;46567;51.660;5.824;2023-04-15T14:55:43;1.6;;;1.0;;
60718;SDS011;46567;51.660;5.824;2023-04-15T15:00:43;2.1;;;0.7;;
60718;SDS011;46567;51.660;5.824;2023-04-15T15:10:43;2.0;;;0.8;;
60718;SDS011;46567;51.660;5.824;2023-04-15T15:15:43;1.6;;;1.1;;
60718;SDS011;46567;51.660;5.824;2023-04-15T15:20:43;1.1;;;0.9;;
60718;SDS011;46567;51.660;5.824;2023-04-15T15:25:44;2.1;;;1.1;;
60718;SDS011;46567;51.660;5.824;2023-04-15T15:30:43;1.0;;;0.9;;
60718;SDS011;46567;51.660;5.824;2023-04-15T15:35:43;2.7;;;1.3;;
60718;SDS011;46567;51.660;5.824;2023-04-15T15:40:43;1.9;;;1.3;;
60718;SDS011;46567;51.660;5.824;2023-04-15T15:45:43;3.1;;;1.8;;
60718;SDS011;46567;51.660;5.824;2023-04-15T15:50:43;4.5;;;1.6;;
60718;SDS011;46567;51.660;5.824;2023-04-15T15:55:43;3.7;;;1.7;;
60718;SDS011;46567;51.660;5.824;2023-04-15T16:00:43;4.1;;;1.4;;
60718;SDS011;46567;51.660;5.824;2023-04-15T16:05:43;2.4;;;1.6;;
60718;SDS011;46567;51.660;5.824;2023-04-15T16:10:43;3.3;;;1.8;;
60718;SDS011;46567;51.660;5.824;2023-04-15T16:15:43;4.2;;;1.9;;
60718;SDS011;46567;51.660;5.824;2023-04-15T16:20:43;4.6;;;1.8;;
60718;SDS011;46567;51.660;5.824;2023-04-15T16:25:43;4.7;;;2.0;;
60718;SDS011;46567;51.660;5.824;2023-04-15T16:30:43;2.9;;;2.0;;
60718;SDS011;46567;51.660;5.824;2023-04-15T16:35:43;4.3;;;2.1;;
60718;SDS011;46567;51.660;5.824;2023-04-15T16:40:44;3.1;;;1.7;;
60718;SDS011;46567;51.660;5.824;2023-04-15T16:45:43;6.3;;;1.9;;
60718;SDS011;46567;51.660;5.824;2023-04-15T16:50:43;8.4;;;2.0;;
60718;SDS011;46567;51.660;5.824;2023-04-15T16:55:43;5.9;;;1.5;;
60718;SDS011;46567;51.660;5.824;2023-04-15T17:00:43;6.6;;;2.0;;
60718;SDS011;46567;51.660;5.824;2023-04-15T17:05:43;6.7;;;1.8;;
60718;SDS011;46567;51.660;5.824;2023-04-15T17:10:43;4.0;;;1.5;;
60718;SDS011;46567;51.660;5.824;2023-04-15T17:15:43;5.2;;;1.6;;
60718;SDS011;46567;51.660;5.824;2023-04-15T17:20:43;5.5;;;1.5;;
60718;SDS011;46567;51.660;5.824;2023-04-15T17:25:43;4.9;;;1.8;;
60718;SDS011;46567;51.660;5.824;2023-04-15T17:30:43;6.5;;;1.7;;
60718;SDS011;46567;51.660;5.824;2023-04-15T17:35:43;3.7;;;1.4;;
60718;SDS011;46567;51.660;5.824;2023-04-15T17:40:43;6.6;;;1.6;;
60718;SDS011;46567;51.660;5.824;2023-04-15T17:45:43;5.2;;;1.2;;
60718;SDS011;46567;51.660;5.824;2023-04-15T17:50:43;5.7;;;1.5;;
60718;SDS011;46567;51.660;5.824;2023-04-15T17:55:43;5.7;;;1.8;;
60718;SDS011;46567;51.660;5.824;2023-04-15T18:00:43;6.5;;;1.5;;
60718;SDS011;46567;51.660;5.824;2023-04-15T18:05:43;7.1;;;1.3;;
60718;SDS011;46567;51.660;5.824;2023-04-15T18:10:43;4.5;;;1.4;;
60718;SDS011;46567;51.660;5.824;2023-04-15T18:15:43;5.7;;;1.3;;
60718;SDS011;46567;51.660;5.824;2023-04-15T18:20:43;4.7;;;1.3;;
60718;SDS011;46567;51.660;5.824;2023-04-15T18:25:43;7.5;;;1.5;;
60718;SDS011;46567;51.660;5.824;2023-04-15T18:30:43;6.0;;;1.6;;
60718;SDS011;46567;51.660;5.824;2023-04-15T18:35:43;8.0;;;2.1;;
60718;SDS011;46567;51.660;5.824;2023-04-15T18:40:43;8.2;;;1.9;;
60718;SDS011;46567;51.660;5.824;2023-04-15T18:45:43;10.9;;;2.3;;
60718;SDS011;46567;51.660;5.824;2023-04-15T18:50:43;8.9;;;1.7;;
60718;SDS011;46567;51.660;5.824;2023-04-15T18:55:43;6.7;;;1.5;;
60718;SDS011;46567;51.660;5.824;2023-04-15T19:00:43;6.7;;;1.6;;
60718;SDS011;46567;51.660;5.824;2023-04-15T19:05:43;5.6;;;1.7;;
60718;SDS011;46567;51.660;5.824;2023-04-15T19:10:43;8.2;;;1.9;;
60718;SDS011;46567;51.660;5.824;2023-04-15T19:15:43;6.9;;;1.9;;
60718;SDS011;46567;51.660;5.824;2023-04-15T19:20:43;8.1;;;1.7;;
60718;SDS011;46567;51.660;5.824;2023-04-15T19:25:43;4.9;;;1.5;;
60718;SDS011;46567;51.660;5.824;2023-04-15T19:30:43;4.9;;;1.8;;
60718;SDS011;46567;51.660;5.824;2023-04-15T19:35:43;7.7;;;1.5;;
60718;SDS011;46567;51.660;5.824;2023-04-15T19:40:43;5.7;;;1.6;;
60718;SDS011;46567;51.660;5.824;2023-04-15T19:45:43;6.1;;;1.9;;
60718;SDS011;46567;51.660;5.824;2023-04-15T19:50:43;5.9;;;1.5;;
60718;SDS011;46567;51.660;5.824;2023-04-15T19:55:43;3.6;;;1.4;;
60718;SDS011;46567;51.660;5.824;2023-04-15T20:00:43;6.8;;;1.5;;
60718;SDS011;46567;51.660;5.824;2023-04-15T20:05:43;4.5;;;1.7;;
60718;SDS011;46567;51.660;5.824;2023-04-15T20:10:43;3.7;;;1.6;;
60718;SDS011;46567;51.660;5.824;2023-04-15T20:15:43;6.5;;;1.6;;
60718;SDS011;46567;51.660;5.824;2023-04-15T20:20:43;4.3;;;1.7;;
60718;SDS011;46567;51.660;5.824;2023-04-15T20:25:43;6.9;;;2.4;;
60718;SDS011;46567;51.660;5.824;2023-04-15T20:30:43;4.3;;;1.6;;
60718;SDS011;46567;51.660;5.824;2023-04-15T20:35:43;5.3;;;1.6;;
60718;SDS011;46567;51.660;5.824;2023-04-15T20:40:43;4.7;;;1.8;;
60718;SDS011;46567;51.660;5.824;2023-04-15T20:45:43;7.6;;;2.0;;
60718;SDS011;46567;51.660;5.824;2023-04-15T20:50:43;7.0;;;1.7;;
60718;SDS011;46567;51.660;5.824;2023-04-15T20:55:43;7.7;;;1.8;;
60718;SDS011;46567;51.660;5.824;2023-04-15T21:00:43;4.7;;;1.9;;
60718;SDS011;46567;51.660;5.824;2023-04-15T21:05:43;6.3;;;2.2;;
60718;SDS011;46567;51.660;5.824;2023-04-15T21:10:43;5.2;;;1.6;;
60718;SDS011;46567;51.660;5.824;2023-04-15T21:15:43;6.1;;;1.9;;
60718;SDS011;46567;51.660;5.824;2023-04-15T21:20:43;7.1;;;2.2;;
60718;SDS011;46567;51.660;5.824;2023-04-15T21:25:43;4.2;;;1.8;;
60718;SDS011;46567;51.660;5.824;2023-04-15T21:30:43;7.5;;;2.0;;
60718;SDS011;46567;51.660;5.824;2023-04-15T21:35:43;4.8;;;2.0;;
60718;SDS011;46567;51.660;5.824;2023-04-15T21:40:43;5.6;;;1.8;;
60718;SDS011;46567;51.660;5.824;2023-04-15T21:45:43;7.0;;;2.2;;
60718;SDS011;46567;51.660;5.824;2023-04-15T21:50:43;8.5;;;2.3;;
60718;SDS011;46567;51.660;5.824;2023-04-15T21:55:43;10.2;;;1.9;;
60718;SDS011;46567;51.660;5.824;2023-04-15T22:00:43;9.0;;;2.0;;
60718;SDS011;46567;51.660;5.824;2023-04-15T22:05:43;4.4;;;1.9;;
60718;SDS011;46567;51.660;5.824;2023-04-15T22:10:43;7.0;;;2.3;;
60718;SDS011;46567;51.660;5.824;2023-04-15T22:15:43;4.3;;;1.5;;
60718;SDS011;46567;51.660;5.824;2023-04-15T22:20:43;6.3;;;2.0;;
60718;SDS011;46567;51.660;5.824;2023-04-15T22:25:43;4.5;;;1.7;;
60718;SDS011;46567;51.660;5.824;2023-04-15T22:30:43;3.9;;;1.5;;
60718;SDS011;46567;51.660;5.824;2023-04-15T22:35:43;6.2;;;1.6;;
60718;SDS011;46567;51.660;5.824;2023-04-15T22:40:44;7.0;;;1.9;;
60718;SDS011;46567;51.660;5.824;2023-04-15T22:45:46;5.3;;;1.9;;
60718;SDS011;46567;51.660;5.824;2023-04-15T22:50:43;3.6;;;2.0;;
60718;SDS011;46567;51.660;5.824;2023-04-15T22:55:43;4.0;;;2.4;;
60718;SDS011;46567;51.660;5.824;2023-04-15T23:00:43;5.8;;;2.3;;
60718;SDS011;46567;51.660;5.824;2023-04-15T23:05:43;4.1;;;2.4;;
60718;SDS011;46567;51.660;5.824;2023-04-15T23:10:43;4.5;;;3.0;;
60718;SDS011;46567;51.660;5.824;2023-04-15T23:15:43;5.7;;;2.6;;
60718;SDS011;46567;51.660;5.824;2023-04-15T23:20:44;7.8;;;2.4;;
60718;SDS011;46567;51.660;5.824;2023-04-15T23:25:43;4.1;;;2.5;;
60718;SDS011;46567;51.660;5.824;2023-04-15T23:30:43;5.1;;;2.4;;
60718;SDS011;46567;51.660;5.824;2023-04-15T23:35:43;5.5;;;2.6;;
60718;SDS011;46567;51.660;5.824;2023-04-15T23:40:43;6.8;;;2.4;;
60718;SDS011;46567;51.660;5.824;2023-04-15T23:45:43;4.9;;;2.7;;
60718;SDS011;46567;51.660;5.824;2023-04-15T23:50:43;5.3;;;2.8;;
60718;SDS011;46567;51.660;5.824;2023-04-15T23:55:43;4.9;;;2.3;;
